createdAt,value
2022-08-07T00:02:36.062Z,70.09
2022-08-07T00:04:45.356Z,70.16
2022-08-07T00:07:48.495Z,70.02
2022-08-07T00:11:01.141Z,69.96
2022-08-07T00:14:08.982Z,69.97
2022-08-07T00:17:13.827Z,69.84
2022-08-07T00:20:29.867Z,70.06
2022-08-07T00:23:39.635Z,70.22
2022-08-07T00:26:59.389Z,70.10
2022-08-07T00:30:06.170Z,70.27
2022-08-07T00:33:28.348Z,70.46
2022-08-07T00:36:35.711Z,70.68
2022-08-07T00:39:44.826Z,70.46
2022-08-07T00:42:50.216Z,70.48
2022-08-07T00:45:52.963Z,70.81
2022-08-07T00:48:56.638Z,70.97
2022-08-07T00:52:09.880Z,70.93
2022-08-07T00:55:12.806Z,70.93
2022-08-07T00:58:21.421Z,70.97
2022-08-07T01:01:24.808Z,71.03
2022-08-07T01:04:27.400Z,70.79
2022-08-07T01:07:33.200Z,70.85
2022-08-07T01:10:36.298Z,70.93
2022-08-07T01:13:39.666Z,70.73
2022-08-07T01:16:58.655Z,70.61
2022-08-07T01:20:09.075Z,70.56
2022-08-07T01:23:13.117Z,70.32
2022-08-07T01:26:20.280Z,70.35
2022-08-07T01:29:27.844Z,70.37
2022-08-07T01:32:34.835Z,70.46
2022-08-07T01:35:53.990Z,70.61
2022-08-07T01:38:58.668Z,70.40
2022-08-07T01:42:37.197Z,70.40
2022-08-07T01:45:37.063Z,70.42
2022-08-07T01:48:47.605Z,70.21
2022-08-07T01:52:02.604Z,70.24
2022-08-07T01:55:08.767Z,70.23
2022-08-07T01:58:33.181Z,69.92
2022-08-07T02:02:02.298Z,69.85
2022-08-07T02:05:08.888Z,69.54
2022-08-07T02:08:23.674Z,69.30
2022-08-07T02:11:30.811Z,69.33
2022-08-07T02:14:53.683Z,69.11
2022-08-07T02:18:00.122Z,69.01
2022-08-07T02:21:06.445Z,68.64
2022-08-07T02:24:11.069Z,68.47
2022-08-07T02:27:22.773Z,68.26
2022-08-07T02:30:27.339Z,68.06
2022-08-07T02:33:41.989Z,68.00
2022-08-07T02:36:53.986Z,67.88
2022-08-07T02:40:02.454Z,67.83
2022-08-07T02:43:22.973Z,67.62
2022-08-07T02:46:27.869Z,67.88
2022-08-07T02:49:57.585Z,67.46
2022-08-07T02:53:06.374Z,67.59
2022-08-07T02:56:20.993Z,67.49
2022-08-07T02:59:27.436Z,67.54
2022-08-07T03:02:31.587Z,67.37
2022-08-07T03:05:37.204Z,67.40
2022-08-07T03:08:41.743Z,67.24
2022-08-07T03:11:52.379Z,67.03
2022-08-07T03:15:02.286Z,67.24
2022-08-07T03:18:11.525Z,67.13
2022-08-07T03:21:20.778Z,67.03
2022-08-07T03:24:27.452Z,67.02
2022-08-07T03:27:59.235Z,66.79
2022-08-07T03:31:15.243Z,66.54
2022-08-07T03:34:22.283Z,66.39
2022-08-07T03:37:27.651Z,66.39
2022-08-07T03:40:36.501Z,66.21
2022-08-07T03:43:44.057Z,66.09
2022-08-07T03:47:11.300Z,66.16
2022-08-07T03:50:23.266Z,66.11
2022-08-07T03:53:30.350Z,66.13
2022-08-07T03:57:03.919Z,66.21
2022-08-07T04:00:12.148Z,66.21
2022-08-07T04:03:18.106Z,65.88
2022-08-07T04:06:37.460Z,65.77
2022-08-07T04:09:45.563Z,65.52
2022-08-07T04:12:54.274Z,65.67
2022-08-07T04:15:58.583Z,65.45
2022-08-07T04:19:12.791Z,65.32
2022-08-07T04:22:19.724Z,65.34
2022-08-07T04:25:29.115Z,65.34
2022-08-07T04:28:33.879Z,65.26
2022-08-07T04:32:03.230Z,65.10
2022-08-07T04:35:05.350Z,65.20
2022-08-07T04:38:13.230Z,64.80
2022-08-07T04:41:18.358Z,64.96
2022-08-07T04:44:23.713Z,64.87
2022-08-07T04:48:10.678Z,64.84
2022-08-07T04:51:27.727Z,64.79
2022-08-07T04:54:50.523Z,64.69
2022-08-07T04:58:33.842Z,64.51
2022-08-07T05:01:50.617Z,64.51
2022-08-07T05:05:00.513Z,64.35
2022-08-07T05:08:06.572Z,64.13
2022-08-07T05:11:19.719Z,64.11
2022-08-07T05:14:53.755Z,64.20
2022-08-07T05:18:12.318Z,63.98
2022-08-07T05:21:59.403Z,63.74
2022-08-07T05:24:43.987Z,63.61
2022-08-07T05:28:16.189Z,63.42
2022-08-07T05:31:14.664Z,63.12
2022-08-07T05:34:20.078Z,63.07
2022-08-07T05:37:30.585Z,63.11
2022-08-07T05:40:50.477Z,62.90
2022-08-07T05:44:11.810Z,62.87
2022-08-07T05:47:19.973Z,62.91
2022-08-07T05:50:24.419Z,63.08
2022-08-07T05:54:12.054Z,63.13
2022-08-07T05:56:51.326Z,63.09
2022-08-07T05:59:57.132Z,63.20
2022-08-07T06:03:02.002Z,63.04
2022-08-07T06:06:09.451Z,62.84
2022-08-07T06:09:12.797Z,62.84
2022-08-07T06:12:16.672Z,62.15
2022-08-07T06:15:39.380Z,62.21
2022-08-07T06:18:51.786Z,61.69
2022-08-07T06:22:14.327Z,61.46
2022-08-07T06:25:23.536Z,61.34
2022-08-07T06:28:29.758Z,61.26
2022-08-07T06:31:46.743Z,61.24
2022-08-07T06:34:53.142Z,61.31
2022-08-07T06:37:58.229Z,61.39
2022-08-07T06:41:07.098Z,61.06
2022-08-07T06:44:14.942Z,60.85
2022-08-07T06:47:22.468Z,60.71
2022-08-07T06:50:26.814Z,60.33
2022-08-07T06:55:29.815Z,60.23
2022-08-07T06:56:59.484Z,59.42
2022-08-07T07:00:12.996Z,58.63
2022-08-07T07:03:39.582Z,58.45
2022-08-07T07:07:00.683Z,56.91
2022-08-07T07:10:05.637Z,56.51
2022-08-07T07:13:15.054Z,56.21
2022-08-07T07:16:19.835Z,56.00
2022-08-07T07:19:55.874Z,55.59
2022-08-07T07:24:08.908Z,55.78
2022-08-07T07:26:34.728Z,55.05
2022-08-07T07:30:09.103Z,55.65
2022-08-07T07:33:11.718Z,54.54
2022-08-07T07:36:17.369Z,53.56
2022-08-07T07:39:22.114Z,52.06
2022-08-07T07:42:33.227Z,50.03
2022-08-07T07:46:40.172Z,50.33
2022-08-07T07:49:09.109Z,49.61
2022-08-07T07:52:24.397Z,49.74
2022-08-07T07:55:37.717Z,50.89
2022-08-07T07:58:48.620Z,50.13
2022-08-07T08:02:04.733Z,48.86
2022-08-07T08:05:15.046Z,48.74
2022-08-07T08:08:34.960Z,49.94
2022-08-07T08:11:59.749Z,50.02
2022-08-07T08:15:02.116Z,51.04
2022-08-07T08:18:17.968Z,51.01
2022-08-07T08:21:55.696Z,51.47
2022-08-07T08:25:27.059Z,52.53
2022-08-07T08:28:45.682Z,52.98
2022-08-07T08:32:17.288Z,53.16
2022-08-07T08:35:17.464Z,53.49
2022-08-07T08:38:25.930Z,55.03
2022-08-07T08:42:12.088Z,55.94
2022-08-07T08:45:58.424Z,57.54
2022-08-07T08:49:10.749Z,58.50
2022-08-07T08:52:30.318Z,58.12
2022-08-07T08:55:55.535Z,58.51
2022-08-07T08:59:20.595Z,57.77
2022-08-07T09:02:40.461Z,57.86
2022-08-07T09:06:06.577Z,57.31
2022-08-07T09:09:33.187Z,57.04
2022-08-07T09:12:39.417Z,57.06
2022-08-07T09:16:20.566Z,56.53
2022-08-07T09:19:50.882Z,56.19
2022-08-07T09:24:31.602Z,56.00
2022-08-07T09:26:47.678Z,55.41
2022-08-07T09:30:04.319Z,54.62
2022-08-07T09:33:57.252Z,54.09
2022-08-07T09:37:20.951Z,53.86
2022-08-07T09:41:03.549Z,54.00
2022-08-07T09:44:19.229Z,53.30
2022-08-07T09:47:50.444Z,53.30
2022-08-07T09:51:14.782Z,53.04
2022-08-07T09:54:45.529Z,53.54
2022-08-07T09:58:13.159Z,53.14
2022-08-07T10:01:51.200Z,53.30
2022-08-07T10:05:58.986Z,53.20
2022-08-07T10:09:07.852Z,52.94
2022-08-07T10:12:52.696Z,52.80
2022-08-07T10:16:05.080Z,53.06
2022-08-07T10:19:16.311Z,52.80
2022-08-07T10:22:45.319Z,52.64
2022-08-07T10:26:17.674Z,52.11
2022-08-07T10:30:12.204Z,51.72
2022-08-07T10:34:06.968Z,51.91
2022-08-07T10:37:18.785Z,52.00
2022-08-07T10:40:38.947Z,52.20
2022-08-07T10:44:28.715Z,52.86
2022-08-07T10:48:03.294Z,52.94
2022-08-07T10:51:16.763Z,54.03
2022-08-07T10:54:42.491Z,54.62
2022-08-07T10:57:58.998Z,56.77
2022-08-07T11:01:35.847Z,58.33
2022-08-07T11:05:13.086Z,57.79
2022-08-07T11:08:30.514Z,57.60
2022-08-07T11:11:37.682Z,58.01
2022-08-07T11:15:00.752Z,58.26
2022-08-07T11:18:17.664Z,57.38
2022-08-07T11:21:47.076Z,56.65
2022-08-07T11:25:19.682Z,56.41
2022-08-07T11:28:39.268Z,56.89
2022-08-07T11:31:54.260Z,57.14
2022-08-07T11:34:59.826Z,59.00
2022-08-07T11:38:29.093Z,58.84
2022-08-07T11:42:01.646Z,57.50
2022-08-07T11:45:06.492Z,57.63
2022-08-07T11:48:30.145Z,56.70
2022-08-07T11:51:46.757Z,57.06
2022-08-07T11:55:01.944Z,56.10
2022-08-07T11:58:20.876Z,55.32
2022-08-07T12:01:59.403Z,55.22
2022-08-07T12:05:28.704Z,55.33
2022-08-07T12:08:55.014Z,53.67
2022-08-07T12:12:12.265Z,51.48
2022-08-07T12:15:57.963Z,51.61
2022-08-07T12:18:58.228Z,48.88
2022-08-07T12:22:37.583Z,49.00
2022-08-07T12:26:05.701Z,47.25
2022-08-07T12:29:38.333Z,47.69
2022-08-07T12:32:49.095Z,45.69
2022-08-07T12:35:57.936Z,44.74
2022-08-07T12:39:41.151Z,44.34
2022-08-07T12:42:32.143Z,44.42
2022-08-07T12:45:53.217Z,44.14
2022-08-07T12:49:09.758Z,43.51
2022-08-07T12:53:01.283Z,43.98
2022-08-07T12:56:12.433Z,43.69
2022-08-07T12:59:23.194Z,44.86
2022-08-07T13:03:08.234Z,45.05
2022-08-07T13:06:27.599Z,44.22
2022-08-07T13:10:28.550Z,44.24
2022-08-07T13:13:53.811Z,44.75
2022-08-07T13:17:21.369Z,45.03
2022-08-07T13:20:30.351Z,44.67
2022-08-07T13:24:00.608Z,45.09
2022-08-07T13:28:05.641Z,45.40
2022-08-07T13:31:13.505Z,45.97
2022-08-07T13:34:34.292Z,45.23
2022-08-07T13:37:58.486Z,45.62
2022-08-07T13:41:24.375Z,46.33
2022-08-07T13:44:36.811Z,46.29
2022-08-07T13:48:06.945Z,46.12
2022-08-07T13:51:26.810Z,46.40
2022-08-07T13:54:33.563Z,46.43
2022-08-07T13:57:39.619Z,46.59
2022-08-07T14:01:11.447Z,46.20
2022-08-07T14:04:21.301Z,45.88
2022-08-07T14:07:28.200Z,46.16
2022-08-07T14:10:42.273Z,46.28
2022-08-07T14:13:55.959Z,46.48
2022-08-07T14:17:32.022Z,46.36
2022-08-07T14:20:43.428Z,46.51
2022-08-07T14:24:14.222Z,46.55
2022-08-07T14:28:11.255Z,46.30
2022-08-07T14:30:51.955Z,46.01
2022-08-07T14:33:55.964Z,45.78
2022-08-07T14:37:03.225Z,45.67
2022-08-07T14:40:15.607Z,45.95
2022-08-07T14:43:55.070Z,45.68
2022-08-07T14:50:18.895Z,44.84
2022-08-07T14:53:49.590Z,45.24
2022-08-07T14:56:48.040Z,45.19
2022-08-07T15:00:03.172Z,45.40
2022-08-07T15:03:16.659Z,45.24
2022-08-07T15:06:26.127Z,45.57
2022-08-07T15:09:57.429Z,45.65
2022-08-07T15:12:58.828Z,45.08
2022-08-07T15:16:11.428Z,45.65
2022-08-07T15:19:19.978Z,45.38
2022-08-07T15:22:53.690Z,45.04
2022-08-07T15:25:57.813Z,44.83
2022-08-07T15:30:08.843Z,45.42
2022-08-07T15:36:02.008Z,46.03
2022-08-07T15:39:12.396Z,45.16
2022-08-07T15:42:43.839Z,45.09
2022-08-07T15:45:57.283Z,45.42
2022-08-07T15:49:12.745Z,46.54
2022-08-07T15:52:30.033Z,45.30
2022-08-07T15:55:53.589Z,45.40
2022-08-07T15:59:00.563Z,45.64
2022-08-07T16:02:04.391Z,45.26
2022-08-07T16:05:15.499Z,45.54
2022-08-07T16:08:31.124Z,44.81
2022-08-07T16:12:00.102Z,45.03
2022-08-07T16:15:54.413Z,44.94
2022-08-07T16:19:03.969Z,45.38
2022-08-07T16:22:54.969Z,45.86
2022-08-07T16:26:01.916Z,46.39
2022-08-07T16:30:07.683Z,46.71
2022-08-07T16:32:54.525Z,46.49
2022-08-07T16:36:31.362Z,46.94
2022-08-07T16:40:28.307Z,47.13
2022-08-07T16:44:03.727Z,47.71
2022-08-07T16:47:52.966Z,47.87
2022-08-07T16:51:54.395Z,48.10
2022-08-07T16:55:03.124Z,48.17
2022-08-07T16:58:18.361Z,48.40
2022-08-07T17:01:41.376Z,48.78
2022-08-07T17:04:58.880Z,48.91
2022-08-07T17:08:02.099Z,49.58
2022-08-07T17:11:14.357Z,50.02
2022-08-07T17:14:41.568Z,50.24
2022-08-07T17:17:55.754Z,50.57
2022-08-07T17:21:02.845Z,50.85
2022-08-07T17:24:40.431Z,51.38
2022-08-07T17:28:14.533Z,51.60
2022-08-07T17:31:44.388Z,52.02
2022-08-07T17:35:51.743Z,52.66
2022-08-07T17:38:50.722Z,53.25
2022-08-07T17:42:03.505Z,53.84
2022-08-07T17:45:17.821Z,54.15
2022-08-07T17:48:31.225Z,54.31
2022-08-07T17:52:00.811Z,54.07
2022-08-07T17:55:12.512Z,53.88
2022-08-07T17:58:30.551Z,54.14
2022-08-07T18:01:37.382Z,53.97
2022-08-07T18:05:21.718Z,53.44
2022-08-07T18:08:31.030Z,53.45
2022-08-07T18:12:07.606Z,53.39
2022-08-07T18:15:32.745Z,53.47
2022-08-07T18:21:10.229Z,53.23
2022-08-07T18:22:26.342Z,53.45
2022-08-07T18:25:40.239Z,53.32
2022-08-07T18:28:57.809Z,53.27
2022-08-07T18:32:10.636Z,53.16
2022-08-07T18:35:51.762Z,53.10
2022-08-07T18:40:08.671Z,52.94
2022-08-07T18:42:44.799Z,53.20
2022-08-07T18:46:34.014Z,52.96
2022-08-07T18:50:33.149Z,53.08
2022-08-07T18:53:45.408Z,52.99
2022-08-07T18:56:58.334Z,52.89
2022-08-07T19:00:34.570Z,52.63
2022-08-07T19:03:49.738Z,52.51
2022-08-07T19:06:57.947Z,52.68
2022-08-07T19:10:12.095Z,52.91
2022-08-07T19:13:27.502Z,52.94
2022-08-07T19:17:01.130Z,53.14
2022-08-07T19:20:25.019Z,53.22
2022-08-07T19:23:57.882Z,53.68
2022-08-07T19:28:28.547Z,53.73
2022-08-07T19:31:06.200Z,54.17
2022-08-07T19:34:00.335Z,54.50
2022-08-07T19:37:10.221Z,54.68
2022-08-07T19:40:30.845Z,54.72
2022-08-07T19:43:43.932Z,54.75
2022-08-07T19:46:57.758Z,54.68
2022-08-07T19:50:41.299Z,54.51
2022-08-07T19:54:31.491Z,54.45
2022-08-07T19:58:02.228Z,54.37
2022-08-07T20:00:28.814Z,54.50
2022-08-07T20:03:36.417Z,54.75
2022-08-07T20:06:43.092Z,54.77
2022-08-07T20:10:36.181Z,54.63
2022-08-07T20:13:23.470Z,55.34
2022-08-07T20:16:34.697Z,56.48
2022-08-07T20:19:47.949Z,58.08
2022-08-07T20:23:10.999Z,59.64
2022-08-07T20:26:38.636Z,60.76
2022-08-07T20:29:57.476Z,61.58
2022-08-07T20:33:03.999Z,62.67
2022-08-07T20:36:08.296Z,63.60
2022-08-07T20:39:30.975Z,65.17
2022-08-07T20:42:47.445Z,66.53
2022-08-07T20:46:28.294Z,68.72
2022-08-07T20:49:59.716Z,69.61
2022-08-07T20:52:50.568Z,71.45
2022-08-07T20:55:57.267Z,73.26
2022-08-07T20:59:05.180Z,74.54
2022-08-07T21:02:35.814Z,75.70
2022-08-07T21:05:54.412Z,76.75
2022-08-07T21:09:14.192Z,77.55
2022-08-07T21:12:25.991Z,77.96
2022-08-07T21:15:58.260Z,78.25
2022-08-07T21:18:58.227Z,79.54
2022-08-07T21:22:05.913Z,80.00
2022-08-07T21:26:01.345Z,81.20
2022-08-07T21:29:15.652Z,82.06
2022-08-07T21:32:46.701Z,82.66
2022-08-07T21:36:11.623Z,83.02
2022-08-07T21:39:45.252Z,82.61
2022-08-07T21:43:00.114Z,82.72
2022-08-07T21:46:24.513Z,82.95
2022-08-07T21:50:00.592Z,83.64
2022-08-07T21:53:28.808Z,83.22
2022-08-07T21:56:47.003Z,82.91
2022-08-07T22:00:22.826Z,83.05
2022-08-07T22:03:40.191Z,82.95
2022-08-07T22:06:55.747Z,83.47
2022-08-07T22:10:03.968Z,83.28
2022-08-07T22:13:13.736Z,83.81
2022-08-07T22:16:39.028Z,84.11
2022-08-07T22:20:41.119Z,83.90
2022-08-07T22:23:59.876Z,83.63
2022-08-07T22:27:21.029Z,83.19
2022-08-07T22:30:52.650Z,82.96
2022-08-07T22:34:00.027Z,83.23
2022-08-07T22:37:16.006Z,83.26
2022-08-07T22:40:46.636Z,83.80
2022-08-07T22:43:56.152Z,83.54
2022-08-07T22:47:35.828Z,84.15
2022-08-07T22:50:50.924Z,83.94
2022-08-07T22:54:11.716Z,84.23
2022-08-07T22:57:40.974Z,85.50
2022-08-07T23:01:18.049Z,86.47
2022-08-07T23:04:58.563Z,86.50
2022-08-07T23:08:30.591Z,86.34
2022-08-07T23:11:51.187Z,85.65
2022-08-07T23:15:09.694Z,85.31
2022-08-07T23:18:32.350Z,85.08
2022-08-07T23:21:43.424Z,84.40
2022-08-07T23:24:48.657Z,83.78
2022-08-07T23:28:22.500Z,83.35
2022-08-07T23:34:21.804Z,82.71
2022-08-07T23:35:24.125Z,82.15
2022-08-07T23:38:56.781Z,81.66
2022-08-07T23:42:26.145Z,81.39
2022-08-07T23:46:02.717Z,81.46
2022-08-07T23:49:15.875Z,81.52
2022-08-07T23:53:00.145Z,81.58
2022-08-07T23:56:06.022Z,82.03
